sensor_id;sensor_type;location;lat;lon;timestamp;P1;durP1;ratioP1;P2;durP2;ratioP2
77868;SDS011;67231;59.144;37.934;2023-04-09T00:02:02;52.78;;;15.82;;
77868;SDS011;67231;59.144;37.934;2023-04-09T00:04:28;62.00;;;17.85;;
77868;SDS011;67231;59.144;37.934;2023-04-09T00:06:54;65.53;;;19.63;;
77868;SDS011;67231;59.144;37.934;2023-04-09T00:09:20;32.50;;;10.57;;
77868;SDS011;67231;59.144;37.934;2023-04-09T00:11:46;31.80;;;9.77;;
77868;SDS011;67231;59.144;37.934;2023-04-09T00:14:12;26.13;;;9.93;;
77868;SDS011;67231;59.144;37.934;2023-04-09T00:16:38;22.52;;;8.82;;
77868;SDS011;67231;59.144;37.934;2023-04-09T00:19:05;24.05;;;8.85;;
77868;SDS011;67231;59.144;37.934;2023-04-09T00:21:32;24.27;;;9.68;;
77868;SDS011;67231;59.144;37.934;2023-04-09T00:23:58;20.75;;;8.32;;
77868;SDS011;67231;59.144;37.934;2023-04-09T00:26:24;23.98;;;8.48;;
77868;SDS011;67231;59.144;37.934;2023-04-09T00:28:50;24.05;;;8.50;;
77868;SDS011;67231;59.144;37.934;2023-04-09T00:31:16;30.98;;;9.60;;
77868;SDS011;67231;59.144;37.934;2023-04-09T00:33:42;34.03;;;10.77;;
77868;SDS011;67231;59.144;37.934;2023-04-09T00:36:09;25.17;;;9.60;;
77868;SDS011;67231;59.144;37.934;2023-04-09T00:38:35;21.67;;;7.72;;
77868;SDS011;67231;59.144;37.934;2023-04-09T00:41:01;21.23;;;8.18;;
77868;SDS011;67231;59.144;37.934;2023-04-09T00:43:27;21.00;;;7.95;;
77868;SDS011;67231;59.144;37.934;2023-04-09T00:45:54;22.77;;;8.80;;
77868;SDS011;67231;59.144;37.934;2023-04-09T00:48:20;22.80;;;9.55;;
77868;SDS011;67231;59.144;37.934;2023-04-09T00:50:47;26.30;;;8.57;;
77868;SDS011;67231;59.144;37.934;2023-04-09T00:53:13;21.13;;;7.97;;
77868;SDS011;67231;59.144;37.934;2023-04-09T00:55:40;22.08;;;8.15;;
77868;SDS011;67231;59.144;37.934;2023-04-09T00:58:12;26.05;;;8.25;;
77868;SDS011;67231;59.144;37.934;2023-04-09T01:00:38;17.77;;;7.38;;
77868;SDS011;67231;59.144;37.934;2023-04-09T01:03:05;21.15;;;7.78;;
77868;SDS011;67231;59.144;37.934;2023-04-09T01:08:51;22.33;;;7.60;;
77868;SDS011;67231;59.144;37.934;2023-04-09T01:11:39;23.15;;;7.88;;
77868;SDS011;67231;59.144;37.934;2023-04-09T01:17:11;18.13;;;6.75;;
77868;SDS011;67231;59.144;37.934;2023-04-09T01:20:08;15.57;;;6.15;;
77868;SDS011;67231;59.144;37.934;2023-04-09T01:22:48;27.50;;;8.50;;
77868;SDS011;67231;59.144;37.934;2023-04-09T01:25:41;16.17;;;6.88;;
77868;SDS011;67231;59.144;37.934;2023-04-09T01:28:32;14.57;;;6.47;;
77868;SDS011;67231;59.144;37.934;2023-04-09T01:31:06;24.23;;;7.07;;
77868;SDS011;67231;59.144;37.934;2023-04-09T01:33:38;18.63;;;7.35;;
77868;SDS011;67231;59.144;37.934;2023-04-09T01:38:34;20.85;;;7.20;;
77868;SDS011;67231;59.144;37.934;2023-04-09T01:41:02;18.30;;;6.72;;
77868;SDS011;67231;59.144;37.934;2023-04-09T01:43:29;17.65;;;6.53;;
77868;SDS011;67231;59.144;37.934;2023-04-09T01:45:59;17.40;;;6.45;;
77868;SDS011;67231;59.144;37.934;2023-04-09T01:48:28;20.45;;;7.45;;
77868;SDS011;67231;59.144;37.934;2023-04-09T01:50:56;16.52;;;6.13;;
77868;SDS011;67231;59.144;37.934;2023-04-09T01:53:23;17.00;;;7.00;;
77868;SDS011;67231;59.144;37.934;2023-04-09T01:58:26;17.02;;;6.22;;
77868;SDS011;67231;59.144;37.934;2023-04-09T02:01:36;17.75;;;7.40;;
77868;SDS011;67231;59.144;37.934;2023-04-09T02:03:50;28.23;;;8.80;;
77868;SDS011;67231;59.144;37.934;2023-04-09T02:09:13;25.58;;;8.82;;
77868;SDS011;67231;59.144;37.934;2023-04-09T02:11:45;25.30;;;8.35;;
77868;SDS011;67231;59.144;37.934;2023-04-09T02:14:13;31.83;;;10.38;;
77868;SDS011;67231;59.144;37.934;2023-04-09T02:16:41;39.78;;;10.48;;
77868;SDS011;67231;59.144;37.934;2023-04-09T02:19:07;34.90;;;12.07;;
77868;SDS011;67231;59.144;37.934;2023-04-09T02:21:33;28.95;;;11.23;;
77868;SDS011;67231;59.144;37.934;2023-04-09T02:23:59;30.42;;;9.88;;
77868;SDS011;67231;59.144;37.934;2023-04-09T02:26:26;29.67;;;9.82;;
77868;SDS011;67231;59.144;37.934;2023-04-09T02:28:52;28.10;;;9.60;;
77868;SDS011;67231;59.144;37.934;2023-04-09T02:31:18;31.85;;;11.32;;
77868;SDS011;67231;59.144;37.934;2023-04-09T02:33:44;24.85;;;8.80;;
77868;SDS011;67231;59.144;37.934;2023-04-09T02:36:10;27.23;;;9.25;;
77868;SDS011;67231;59.144;37.934;2023-04-09T02:38:40;31.50;;;9.38;;
77868;SDS011;67231;59.144;37.934;2023-04-09T02:41:07;35.38;;;11.52;;
77868;SDS011;67231;59.144;37.934;2023-04-09T02:43:34;25.83;;;8.77;;
77868;SDS011;67231;59.144;37.934;2023-04-09T02:46:00;27.67;;;9.43;;
77868;SDS011;67231;59.144;37.934;2023-04-09T02:48:26;24.23;;;7.43;;
77868;SDS011;67231;59.144;37.934;2023-04-09T02:50:52;25.15;;;8.73;;
77868;SDS011;67231;59.144;37.934;2023-04-09T02:53:19;34.38;;;9.75;;
77868;SDS011;67231;59.144;37.934;2023-04-09T02:55:46;34.65;;;10.48;;
77868;SDS011;67231;59.144;37.934;2023-04-09T02:58:17;49.50;;;13.80;;
77868;SDS011;67231;59.144;37.934;2023-04-09T03:00:44;49.55;;;14.10;;
77868;SDS011;67231;59.144;37.934;2023-04-09T03:03:10;46.85;;;14.63;;
77868;SDS011;67231;59.144;37.934;2023-04-09T03:05:36;47.17;;;14.00;;
77868;SDS011;67231;59.144;37.934;2023-04-09T03:08:03;51.22;;;14.18;;
77868;SDS011;67231;59.144;37.934;2023-04-09T03:10:29;37.90;;;11.93;;
77868;SDS011;67231;59.144;37.934;2023-04-09T03:12:55;35.47;;;12.63;;
77868;SDS011;67231;59.144;37.934;2023-04-09T03:15:21;40.63;;;11.95;;
77868;SDS011;67231;59.144;37.934;2023-04-09T03:17:47;22.05;;;7.97;;
77868;SDS011;67231;59.144;37.934;2023-04-09T03:20:14;36.58;;;11.00;;
77868;SDS011;67231;59.144;37.934;2023-04-09T03:22:40;18.20;;;7.22;;
77868;SDS011;67231;59.144;37.934;2023-04-09T03:25:17;24.92;;;9.68;;
77868;SDS011;67231;59.144;37.934;2023-04-09T03:27:47;24.25;;;9.30;;
77868;SDS011;67231;59.144;37.934;2023-04-09T03:30:20;23.92;;;9.32;;
77868;SDS011;67231;59.144;37.934;2023-04-09T03:32:46;21.33;;;8.65;;
77868;SDS011;67231;59.144;37.934;2023-04-09T03:35:13;22.67;;;7.88;;
77868;SDS011;67231;59.144;37.934;2023-04-09T03:37:41;20.35;;;8.27;;
77868;SDS011;67231;59.144;37.934;2023-04-09T03:40:14;22.83;;;8.35;;
77868;SDS011;67231;59.144;37.934;2023-04-09T03:42:43;20.60;;;8.80;;
77868;SDS011;67231;59.144;37.934;2023-04-09T03:45:11;15.68;;;5.82;;
77868;SDS011;67231;59.144;37.934;2023-04-09T03:47:41;11.10;;;5.05;;
77868;SDS011;67231;59.144;37.934;2023-04-09T03:50:08;12.43;;;4.97;;
77868;SDS011;67231;59.144;37.934;2023-04-09T03:52:45;13.48;;;5.15;;
77868;SDS011;67231;59.144;37.934;2023-04-09T03:55:11;13.05;;;4.80;;
77868;SDS011;67231;59.144;37.934;2023-04-09T03:57:43;12.77;;;5.00;;
77868;SDS011;67231;59.144;37.934;2023-04-09T04:00:14;10.05;;;4.45;;
77868;SDS011;67231;59.144;37.934;2023-04-09T04:02:49;16.02;;;6.18;;
77868;SDS011;67231;59.144;37.934;2023-04-09T04:05:23;12.90;;;5.20;;
77868;SDS011;67231;59.144;37.934;2023-04-09T04:07:54;14.55;;;5.63;;
77868;SDS011;67231;59.144;37.934;2023-04-09T04:10:26;12.73;;;5.30;;
77868;SDS011;67231;59.144;37.934;2023-04-09T04:12:52;15.40;;;6.47;;
77868;SDS011;67231;59.144;37.934;2023-04-09T04:15:30;16.40;;;5.13;;
77868;SDS011;67231;59.144;37.934;2023-04-09T04:17:56;16.27;;;6.57;;
77868;SDS011;67231;59.144;37.934;2023-04-09T04:20:34;13.20;;;5.70;;
77868;SDS011;67231;59.144;37.934;2023-04-09T04:23:06;13.30;;;4.45;;
77868;SDS011;67231;59.144;37.934;2023-04-09T04:25:35;15.85;;;7.72;;
77868;SDS011;67231;59.144;37.934;2023-04-09T04:28:02;12.43;;;4.95;;
77868;SDS011;67231;59.144;37.934;2023-04-09T04:30:36;15.23;;;5.07;;
77868;SDS011;67231;59.144;37.934;2023-04-09T04:33:06;18.20;;;4.70;;
77868;SDS011;67231;59.144;37.934;2023-04-09T04:35:40;9.05;;;3.92;;
77868;SDS011;67231;59.144;37.934;2023-04-09T04:38:11;10.48;;;3.75;;
77868;SDS011;67231;59.144;37.934;2023-04-09T04:40:39;13.57;;;4.97;;
77868;SDS011;67231;59.144;37.934;2023-04-09T04:43:05;10.00;;;3.88;;
77868;SDS011;67231;59.144;37.934;2023-04-09T04:45:32;15.75;;;6.97;;
77868;SDS011;67231;59.144;37.934;2023-04-09T04:48:07;14.52;;;5.72;;
77868;SDS011;67231;59.144;37.934;2023-04-09T04:50:33;12.05;;;5.00;;
77868;SDS011;67231;59.144;37.934;2023-04-09T04:53:03;10.32;;;4.13;;
77868;SDS011;67231;59.144;37.934;2023-04-09T04:55:34;12.20;;;4.20;;
77868;SDS011;67231;59.144;37.934;2023-04-09T04:58:07;12.07;;;4.60;;
77868;SDS011;67231;59.144;37.934;2023-04-09T05:00:41;11.40;;;4.25;;
77868;SDS011;67231;59.144;37.934;2023-04-09T05:03:08;14.15;;;3.90;;
77868;SDS011;67231;59.144;37.934;2023-04-09T05:05:48;17.35;;;4.65;;
77868;SDS011;67231;59.144;37.934;2023-04-09T05:08:15;10.93;;;4.80;;
77868;SDS011;67231;59.144;37.934;2023-04-09T05:10:42;10.02;;;4.15;;
77868;SDS011;67231;59.144;37.934;2023-04-09T05:13:10;14.38;;;5.18;;
77868;SDS011;67231;59.144;37.934;2023-04-09T05:15:37;9.32;;;4.80;;
77868;SDS011;67231;59.144;37.934;2023-04-09T05:18:04;11.73;;;5.35;;
77868;SDS011;67231;59.144;37.934;2023-04-09T05:20:33;23.20;;;9.68;;
77868;SDS011;67231;59.144;37.934;2023-04-09T05:23:07;14.15;;;5.60;;
77868;SDS011;67231;59.144;37.934;2023-04-09T05:25:49;20.42;;;6.97;;
77868;SDS011;67231;59.144;37.934;2023-04-09T05:28:36;20.55;;;7.30;;
77868;SDS011;67231;59.144;37.934;2023-04-09T05:31:11;18.40;;;6.93;;
77868;SDS011;67231;59.144;37.934;2023-04-09T05:33:44;17.25;;;9.25;;
77868;SDS011;67231;59.144;37.934;2023-04-09T05:36:17;16.90;;;6.18;;
77868;SDS011;67231;59.144;37.934;2023-04-09T05:38:47;13.07;;;5.90;;
77868;SDS011;67231;59.144;37.934;2023-04-09T05:41:13;13.60;;;6.18;;
77868;SDS011;67231;59.144;37.934;2023-04-09T05:43:50;22.98;;;6.07;;
77868;SDS011;67231;59.144;37.934;2023-04-09T05:46:16;18.20;;;5.55;;
77868;SDS011;67231;59.144;37.934;2023-04-09T05:48:43;16.25;;;5.90;;
77868;SDS011;67231;59.144;37.934;2023-04-09T05:51:10;18.55;;;6.40;;
77868;SDS011;67231;59.144;37.934;2023-04-09T05:53:37;15.80;;;6.00;;
77868;SDS011;67231;59.144;37.934;2023-04-09T05:56:11;16.63;;;7.55;;
77868;SDS011;67231;59.144;37.934;2023-04-09T05:58:51;16.15;;;6.40;;
77868;SDS011;67231;59.144;37.934;2023-04-09T06:01:17;13.27;;;6.57;;
77868;SDS011;67231;59.144;37.934;2023-04-09T06:03:43;26.08;;;7.72;;
77868;SDS011;67231;59.144;37.934;2023-04-09T06:06:09;18.00;;;7.65;;
77868;SDS011;67231;59.144;37.934;2023-04-09T06:08:36;16.10;;;5.60;;
77868;SDS011;67231;59.144;37.934;2023-04-09T06:11:02;13.10;;;5.50;;
77868;SDS011;67231;59.144;37.934;2023-04-09T06:13:29;18.50;;;6.20;;
77868;SDS011;67231;59.144;37.934;2023-04-09T06:15:55;17.98;;;7.68;;
77868;SDS011;67231;59.144;37.934;2023-04-09T06:18:21;24.20;;;9.52;;
77868;SDS011;67231;59.144;37.934;2023-04-09T06:20:48;20.02;;;7.22;;
77868;SDS011;67231;59.144;37.934;2023-04-09T06:23:14;19.08;;;10.05;;
77868;SDS011;67231;59.144;37.934;2023-04-09T06:25:40;15.45;;;8.10;;
77868;SDS011;67231;59.144;37.934;2023-04-09T06:28:06;17.38;;;7.93;;
77868;SDS011;67231;59.144;37.934;2023-04-09T06:30:32;14.52;;;7.28;;
77868;SDS011;67231;59.144;37.934;2023-04-09T06:33:00;15.65;;;7.40;;
77868;SDS011;67231;59.144;37.934;2023-04-09T06:35:26;11.20;;;6.45;;
77868;SDS011;67231;59.144;37.934;2023-04-09T06:37:52;11.65;;;6.47;;
77868;SDS011;67231;59.144;37.934;2023-04-09T06:40:18;16.25;;;6.95;;
77868;SDS011;67231;59.144;37.934;2023-04-09T06:42:45;12.90;;;7.07;;
77868;SDS011;67231;59.144;37.934;2023-04-09T06:45:19;14.10;;;7.03;;
77868;SDS011;67231;59.144;37.934;2023-04-09T06:47:45;16.70;;;8.38;;
77868;SDS011;67231;59.144;37.934;2023-04-09T06:50:11;20.02;;;9.15;;
77868;SDS011;67231;59.144;37.934;2023-04-09T06:52:38;19.77;;;9.63;;
77868;SDS011;67231;59.144;37.934;2023-04-09T06:55:04;13.98;;;6.30;;
77868;SDS011;67231;59.144;37.934;2023-04-09T06:57:36;18.45;;;9.20;;
77868;SDS011;67231;59.144;37.934;2023-04-09T07:00:03;22.50;;;10.48;;
77868;SDS011;67231;59.144;37.934;2023-04-09T07:02:30;24.30;;;9.95;;
77868;SDS011;67231;59.144;37.934;2023-04-09T07:04:56;27.52;;;12.57;;
77868;SDS011;67231;59.144;37.934;2023-04-09T07:07:22;40.67;;;22.42;;
77868;SDS011;67231;59.144;37.934;2023-04-09T07:09:49;56.60;;;29.75;;
77868;SDS011;67231;59.144;37.934;2023-04-09T07:12:34;50.45;;;28.40;;
77868;SDS011;67231;59.144;37.934;2023-04-09T07:15:04;40.22;;;23.70;;
77868;SDS011;67231;59.144;37.934;2023-04-09T07:17:32;37.42;;;21.20;;
77868;SDS011;67231;59.144;37.934;2023-04-09T07:19:59;36.30;;;18.30;;
77868;SDS011;67231;59.144;37.934;2023-04-09T07:22:27;43.25;;;25.60;;
77868;SDS011;67231;59.144;37.934;2023-04-09T07:24:53;36.63;;;16.27;;
77868;SDS011;67231;59.144;37.934;2023-04-09T07:27:22;30.98;;;12.50;;
77868;SDS011;67231;59.144;37.934;2023-04-09T07:29:50;20.23;;;12.38;;
77868;SDS011;67231;59.144;37.934;2023-04-09T07:32:18;22.73;;;11.25;;
77868;SDS011;67231;59.144;37.934;2023-04-09T07:34:45;22.10;;;11.82;;
77868;SDS011;67231;59.144;37.934;2023-04-09T07:37:11;18.00;;;11.30;;
77868;SDS011;67231;59.144;37.934;2023-04-09T07:39:37;13.40;;;6.97;;
77868;SDS011;67231;59.144;37.934;2023-04-09T07:42:04;26.45;;;16.20;;
77868;SDS011;67231;59.144;37.934;2023-04-09T07:44:34;20.38;;;11.43;;
77868;SDS011;67231;59.144;37.934;2023-04-09T07:47:02;22.38;;;12.65;;
77868;SDS011;67231;59.144;37.934;2023-04-09T07:49:30;16.50;;;6.18;;
77868;SDS011;67231;59.144;37.934;2023-04-09T07:51:57;12.70;;;5.93;;
77868;SDS011;67231;59.144;37.934;2023-04-09T07:54:25;9.02;;;4.80;;
77868;SDS011;67231;59.144;37.934;2023-04-09T07:56:56;11.10;;;5.18;;
77868;SDS011;67231;59.144;37.934;2023-04-09T07:59:23;11.85;;;5.22;;
77868;SDS011;67231;59.144;37.934;2023-04-09T08:01:49;9.65;;;5.13;;
77868;SDS011;67231;59.144;37.934;2023-04-09T08:04:16;10.50;;;5.10;;
77868;SDS011;67231;59.144;37.934;2023-04-09T08:06:42;11.55;;;4.63;;
77868;SDS011;67231;59.144;37.934;2023-04-09T08:09:12;13.90;;;5.07;;
77868;SDS011;67231;59.144;37.934;2023-04-09T08:11:38;14.23;;;5.57;;
77868;SDS011;67231;59.144;37.934;2023-04-09T08:14:05;10.60;;;5.75;;
77868;SDS011;67231;59.144;37.934;2023-04-09T08:16:31;16.40;;;6.53;;
77868;SDS011;67231;59.144;37.934;2023-04-09T08:18:57;13.73;;;5.15;;
77868;SDS011;67231;59.144;37.934;2023-04-09T08:21:23;11.50;;;5.07;;
77868;SDS011;67231;59.144;37.934;2023-04-09T08:23:51;13.02;;;5.50;;
77868;SDS011;67231;59.144;37.934;2023-04-09T08:26:17;11.02;;;5.05;;
77868;SDS011;67231;59.144;37.934;2023-04-09T08:28:43;8.55;;;4.88;;
77868;SDS011;67231;59.144;37.934;2023-04-09T08:31:09;9.80;;;4.90;;
77868;SDS011;67231;59.144;37.934;2023-04-09T08:33:35;8.98;;;4.68;;
77868;SDS011;67231;59.144;37.934;2023-04-09T08:36:01;10.75;;;4.60;;
77868;SDS011;67231;59.144;37.934;2023-04-09T08:38:32;8.30;;;5.55;;
77868;SDS011;67231;59.144;37.934;2023-04-09T08:40:58;10.40;;;5.15;;
77868;SDS011;67231;59.144;37.934;2023-04-09T08:43:24;9.70;;;4.82;;
77868;SDS011;67231;59.144;37.934;2023-04-09T08:45:53;8.38;;;3.60;;
77868;SDS011;67231;59.144;37.934;2023-04-09T08:48:22;10.85;;;4.25;;
77868;SDS011;67231;59.144;37.934;2023-04-09T08:50:50;9.25;;;3.90;;
77868;SDS011;67231;59.144;37.934;2023-04-09T08:53:18;7.53;;;4.20;;
77868;SDS011;67231;59.144;37.934;2023-04-09T08:55:47;7.18;;;3.45;;
77868;SDS011;67231;59.144;37.934;2023-04-09T08:58:18;7.93;;;4.00;;
77868;SDS011;67231;59.144;37.934;2023-04-09T09:00:44;7.47;;;5.03;;
77868;SDS011;67231;59.144;37.934;2023-04-09T09:03:11;7.43;;;4.78;;
77868;SDS011;67231;59.144;37.934;2023-04-09T09:05:38;8.68;;;3.58;;
77868;SDS011;67231;59.144;37.934;2023-04-09T09:08:10;7.95;;;3.78;;
77868;SDS011;67231;59.144;37.934;2023-04-09T09:10:47;9.15;;;4.65;;
77868;SDS011;67231;59.144;37.934;2023-04-09T09:15:50;6.78;;;3.70;;
77868;SDS011;67231;59.144;37.934;2023-04-09T09:18:36;6.63;;;3.20;;
77868;SDS011;67231;59.144;37.934;2023-04-09T09:23:40;4.32;;;2.88;;
77868;SDS011;67231;59.144;37.934;2023-04-09T09:26:17;7.38;;;3.17;;
77868;SDS011;67231;59.144;37.934;2023-04-09T09:28:47;6.32;;;2.92;;
77868;SDS011;67231;59.144;37.934;2023-04-09T09:31:14;5.07;;;2.75;;
77868;SDS011;67231;59.144;37.934;2023-04-09T09:33:41;6.13;;;3.17;;
77868;SDS011;67231;59.144;37.934;2023-04-09T09:36:08;5.72;;;3.30;;
77868;SDS011;67231;59.144;37.934;2023-04-09T09:38:54;5.20;;;3.03;;
77868;SDS011;67231;59.144;37.934;2023-04-09T09:41:22;7.13;;;2.58;;
77868;SDS011;67231;59.144;37.934;2023-04-09T09:43:49;4.43;;;2.47;;
77868;SDS011;67231;59.144;37.934;2023-04-09T09:46:15;5.60;;;2.88;;
77868;SDS011;67231;59.144;37.934;2023-04-09T09:48:43;5.68;;;2.95;;
77868;SDS011;67231;59.144;37.934;2023-04-09T09:51:11;6.85;;;3.13;;
77868;SDS011;67231;59.144;37.934;2023-04-09T09:53:40;6.95;;;3.38;;
77868;SDS011;67231;59.144;37.934;2023-04-09T09:56:12;8.52;;;3.70;;
77868;SDS011;67231;59.144;37.934;2023-04-09T10:01:21;5.13;;;3.03;;
77868;SDS011;67231;59.144;37.934;2023-04-09T10:03:51;7.53;;;3.30;;
77868;SDS011;67231;59.144;37.934;2023-04-09T10:06:22;8.18;;;3.15;;
77868;SDS011;67231;59.144;37.934;2023-04-09T10:08:49;5.15;;;3.22;;
77868;SDS011;67231;59.144;37.934;2023-04-09T10:11:17;5.97;;;3.10;;
77868;SDS011;67231;59.144;37.934;2023-04-09T10:13:47;5.60;;;2.92;;
77868;SDS011;67231;59.144;37.934;2023-04-09T10:16:16;10.27;;;3.58;;
77868;SDS011;67231;59.144;37.934;2023-04-09T10:18:43;11.57;;;4.28;;
77868;SDS011;67231;59.144;37.934;2023-04-09T10:23:43;6.65;;;3.90;;
77868;SDS011;67231;59.144;37.934;2023-04-09T10:26:10;7.47;;;3.60;;
77868;SDS011;67231;59.144;37.934;2023-04-09T10:28:36;8.48;;;3.83;;
77868;SDS011;67231;59.144;37.934;2023-04-09T10:31:03;7.82;;;3.45;;
77868;SDS011;67231;59.144;37.934;2023-04-09T10:33:31;6.50;;;2.90;;
77868;SDS011;67231;59.144;37.934;2023-04-09T10:35:58;8.80;;;3.33;;
77868;SDS011;67231;59.144;37.934;2023-04-09T10:38:37;8.95;;;3.60;;
77868;SDS011;67231;59.144;37.934;2023-04-09T10:41:24;7.95;;;3.85;;
77868;SDS011;67231;59.144;37.934;2023-04-09T10:43:53;7.72;;;3.50;;
77868;SDS011;67231;59.144;37.934;2023-04-09T10:51:34;7.88;;;3.42;;
77868;SDS011;67231;59.144;37.934;2023-04-09T10:54:04;7.60;;;3.63;;
77868;SDS011;67231;59.144;37.934;2023-04-09T10:56:36;9.45;;;3.30;;
77868;SDS011;67231;59.144;37.934;2023-04-09T10:59:02;6.85;;;3.28;;
77868;SDS011;67231;59.144;37.934;2023-04-09T11:01:28;6.32;;;3.33;;
77868;SDS011;67231;59.144;37.934;2023-04-09T11:04:06;9.50;;;3.92;;
77868;SDS011;67231;59.144;37.934;2023-04-09T11:06:37;8.48;;;3.78;;
77868;SDS011;67231;59.144;37.934;2023-04-09T11:09:06;10.10;;;4.25;;
77868;SDS011;67231;59.144;37.934;2023-04-09T11:11:32;7.57;;;4.68;;
77868;SDS011;67231;59.144;37.934;2023-04-09T11:13:59;11.13;;;5.25;;
77868;SDS011;67231;59.144;37.934;2023-04-09T11:16:28;12.88;;;4.97;;
77868;SDS011;67231;59.144;37.934;2023-04-09T11:18:55;12.07;;;4.55;;
77868;SDS011;67231;59.144;37.934;2023-04-09T11:21:25;8.63;;;4.60;;
77868;SDS011;67231;59.144;37.934;2023-04-09T11:23:53;14.05;;;6.13;;
77868;SDS011;67231;59.144;37.934;2023-04-09T11:26:29;10.27;;;4.90;;
77868;SDS011;67231;59.144;37.934;2023-04-09T11:29:04;11.73;;;4.32;;
77868;SDS011;67231;59.144;37.934;2023-04-09T11:31:34;7.60;;;3.63;;
77868;SDS011;67231;59.144;37.934;2023-04-09T11:34:01;6.32;;;4.07;;
77868;SDS011;67231;59.144;37.934;2023-04-09T11:36:27;14.02;;;4.22;;
77868;SDS011;67231;59.144;37.934;2023-04-09T11:38:54;9.43;;;4.85;;
77868;SDS011;67231;59.144;37.934;2023-04-09T11:41:33;8.10;;;4.05;;
77868;SDS011;67231;59.144;37.934;2023-04-09T11:44:03;8.30;;;3.75;;
77868;SDS011;67231;59.144;37.934;2023-04-09T11:46:38;7.03;;;3.60;;
77868;SDS011;67231;59.144;37.934;2023-04-09T11:49:06;9.25;;;3.95;;
77868;SDS011;67231;59.144;37.934;2023-04-09T11:51:32;7.65;;;4.13;;
77868;SDS011;67231;59.144;37.934;2023-04-09T11:54:00;9.63;;;4.10;;
77868;SDS011;67231;59.144;37.934;2023-04-09T11:56:35;8.00;;;4.25;;
77868;SDS011;67231;59.144;37.934;2023-04-09T11:59:02;9.68;;;4.20;;
77868;SDS011;67231;59.144;37.934;2023-04-09T12:01:32;8.98;;;3.95;;
77868;SDS011;67231;59.144;37.934;2023-04-09T12:03:58;7.70;;;3.42;;
77868;SDS011;67231;59.144;37.934;2023-04-09T12:06:26;9.30;;;4.00;;
77868;SDS011;67231;59.144;37.934;2023-04-09T12:08:55;9.85;;;5.30;;
77868;SDS011;67231;59.144;37.934;2023-04-09T12:11:26;12.32;;;5.60;;
77868;SDS011;67231;59.144;37.934;2023-04-09T12:14:01;15.70;;;5.32;;
77868;SDS011;67231;59.144;37.934;2023-04-09T12:16:31;17.42;;;5.43;;
77868;SDS011;67231;59.144;37.934;2023-04-09T12:19:02;11.85;;;4.80;;
77868;SDS011;67231;59.144;37.934;2023-04-09T12:21:48;8.13;;;4.72;;
77868;SDS011;67231;59.144;37.934;2023-04-09T12:24:16;13.95;;;5.25;;
77868;SDS011;67231;59.144;37.934;2023-04-09T12:26:46;15.05;;;5.35;;
77868;SDS011;67231;59.144;37.934;2023-04-09T12:29:13;9.20;;;4.82;;
77868;SDS011;67231;59.144;37.934;2023-04-09T12:31:40;19.13;;;5.97;;
77868;SDS011;67231;59.144;37.934;2023-04-09T12:34:07;10.80;;;4.68;;
77868;SDS011;67231;59.144;37.934;2023-04-09T12:36:34;18.65;;;4.82;;
77868;SDS011;67231;59.144;37.934;2023-04-09T12:39:00;12.82;;;4.40;;
77868;SDS011;67231;59.144;37.934;2023-04-09T12:41:26;7.80;;;4.15;;
77868;SDS011;67231;59.144;37.934;2023-04-09T12:43:53;11.13;;;4.35;;
77868;SDS011;67231;59.144;37.934;2023-04-09T12:46:19;10.30;;;4.30;;
77868;SDS011;67231;59.144;37.934;2023-04-09T12:48:45;14.73;;;4.63;;
77868;SDS011;67231;59.144;37.934;2023-04-09T12:51:12;10.38;;;4.55;;
77868;SDS011;67231;59.144;37.934;2023-04-09T12:53:39;9.77;;;4.38;;
77868;SDS011;67231;59.144;37.934;2023-04-09T12:56:05;10.55;;;4.38;;
77868;SDS011;67231;59.144;37.934;2023-04-09T12:58:37;11.90;;;5.22;;
77868;SDS011;67231;59.144;37.934;2023-04-09T13:01:03;13.07;;;5.60;;
77868;SDS011;67231;59.144;37.934;2023-04-09T13:03:30;15.23;;;7.72;;
77868;SDS011;67231;59.144;37.934;2023-04-09T13:05:56;15.25;;;5.47;;
77868;SDS011;67231;59.144;37.934;2023-04-09T13:08:22;11.65;;;5.22;;
77868;SDS011;67231;59.144;37.934;2023-04-09T13:10:48;12.10;;;5.05;;
77868;SDS011;67231;59.144;37.934;2023-04-09T13:13:14;8.82;;;4.60;;
77868;SDS011;67231;59.144;37.934;2023-04-09T13:15:41;9.98;;;4.25;;
77868;SDS011;67231;59.144;37.934;2023-04-09T13:18:11;12.25;;;5.10;;
77868;SDS011;67231;59.144;37.934;2023-04-09T13:20:38;14.93;;;5.07;;
77868;SDS011;67231;59.144;37.934;2023-04-09T13:23:04;9.85;;;5.22;;
77868;SDS011;67231;59.144;37.934;2023-04-09T13:25:34;18.60;;;9.13;;
77868;SDS011;67231;59.144;37.934;2023-04-09T13:28:04;12.13;;;5.93;;
77868;SDS011;67231;59.144;37.934;2023-04-09T13:30:35;12.07;;;5.97;;
77868;SDS011;67231;59.144;37.934;2023-04-09T13:33:05;13.98;;;6.43;;
77868;SDS011;67231;59.144;37.934;2023-04-09T13:35:31;9.95;;;4.95;;
77868;SDS011;67231;59.144;37.934;2023-04-09T13:37:57;16.23;;;5.80;;
77868;SDS011;67231;59.144;37.934;2023-04-09T13:42:55;11.25;;;5.18;;
77868;SDS011;67231;59.144;37.934;2023-04-09T13:45:21;15.23;;;6.10;;
77868;SDS011;67231;59.144;37.934;2023-04-09T13:47:48;23.73;;;9.50;;
77868;SDS011;67231;59.144;37.934;2023-04-09T13:50:14;14.23;;;5.78;;
77868;SDS011;67231;59.144;37.934;2023-04-09T13:52:41;16.73;;;6.47;;
77868;SDS011;67231;59.144;37.934;2023-04-09T13:55:07;16.52;;;7.65;;
77868;SDS011;67231;59.144;37.934;2023-04-09T13:57:39;27.35;;;11.45;;
77868;SDS011;67231;59.144;37.934;2023-04-09T14:00:06;20.90;;;8.07;;
77868;SDS011;67231;59.144;37.934;2023-04-09T14:02:33;14.60;;;7.07;;
77868;SDS011;67231;59.144;37.934;2023-04-09T14:04:59;25.67;;;10.20;;
77868;SDS011;67231;59.144;37.934;2023-04-09T14:07:30;24.02;;;9.50;;
77868;SDS011;67231;59.144;37.934;2023-04-09T14:09:56;29.42;;;11.82;;
77868;SDS011;67231;59.144;37.934;2023-04-09T14:12:22;17.73;;;7.03;;
77868;SDS011;67231;59.144;37.934;2023-04-09T14:14:49;13.80;;;5.55;;
77868;SDS011;67231;59.144;37.934;2023-04-09T14:17:15;18.45;;;8.75;;
77868;SDS011;67231;59.144;37.934;2023-04-09T14:19:41;15.88;;;6.78;;
77868;SDS011;67231;59.144;37.934;2023-04-09T14:22:07;19.17;;;8.40;;
77868;SDS011;67231;59.144;37.934;2023-04-09T14:24:34;23.05;;;10.35;;
77868;SDS011;67231;59.144;37.934;2023-04-09T14:27:05;22.45;;;10.27;;
77868;SDS011;67231;59.144;37.934;2023-04-09T14:29:32;25.70;;;8.07;;
77868;SDS011;67231;59.144;37.934;2023-04-09T14:31:58;35.22;;;13.80;;
77868;SDS011;67231;59.144;37.934;2023-04-09T14:34:26;54.38;;;20.80;;
77868;SDS011;67231;59.144;37.934;2023-04-09T14:36:54;38.70;;;14.68;;
77868;SDS011;67231;59.144;37.934;2023-04-09T14:39:20;35.22;;;12.55;;
77868;SDS011;67231;59.144;37.934;2023-04-09T14:41:46;28.90;;;9.52;;
77868;SDS011;67231;59.144;37.934;2023-04-09T14:44:12;16.75;;;7.00;;
77868;SDS011;67231;59.144;37.934;2023-04-09T14:46:38;19.38;;;6.57;;
77868;SDS011;67231;59.144;37.934;2023-04-09T14:49:05;14.43;;;5.90;;
77868;SDS011;67231;59.144;37.934;2023-04-09T14:51:31;15.20;;;6.00;;
77868;SDS011;67231;59.144;37.934;2023-04-09T14:53:58;12.45;;;5.78;;
77868;SDS011;67231;59.144;37.934;2023-04-09T14:56:40;22.35;;;6.00;;
77868;SDS011;67231;59.144;37.934;2023-04-09T14:59:07;16.10;;;5.45;;
77868;SDS011;67231;59.144;37.934;2023-04-09T15:01:33;11.07;;;5.20;;
77868;SDS011;67231;59.144;37.934;2023-04-09T15:03:59;20.98;;;7.40;;
77868;SDS011;67231;59.144;37.934;2023-04-09T15:06:25;36.25;;;14.27;;